Terminal Aerodrome Forecast
Issued by NWS

Home | Current Version | Previous Version | Text Only | Print | Product List | Glossary On
Versions: 1 2 3 4 5 6 7 8 9 10 11 12 13 14 15 16
122
FTAK31 PAJN 072323
TAFAYA
TAF
PAYA 072323Z 0800/0824 11006KT 6SM -RASN BR OVC015
      TEMPO 0800/0804 2SM -SNRA BR OVC015
     FM080600 13006KT 6SM -SHRA BR SCT015 OVC025
     FM081500 VRB03KT P6SM VCSH FEW020 SCT035 BKN060
      AMD LTD TO CLD VIS AND WIND 0801/0809=

USA.gov is the U.S. government's official web portal to all federal, state and local government web resources and services.